createdAt,value
2018-11-26T00:00:36.189Z,60.33
2018-11-26T00:03:09.468Z,55.00
2018-11-26T00:05:38.903Z,57.60
2018-11-26T00:08:09.937Z,54.87
2018-11-26T00:10:49.728Z,56.10
2018-11-26T00:13:18.500Z,53.07
2018-11-26T00:15:47.158Z,57.07
2018-11-26T00:18:15.735Z,56.97
2018-11-26T00:20:44.297Z,61.83
2018-11-26T00:23:12.902Z,75.30
2018-11-26T00:25:41.450Z,63.70
2018-11-26T00:28:10.140Z,65.43
2018-11-26T00:30:39.076Z,65.00
2018-11-26T00:33:07.585Z,62.00
2018-11-26T00:35:36.155Z,64.17
2018-11-26T00:39:34.102Z,63.53
2018-11-26T00:42:02.828Z,67.43
2018-11-26T00:44:31.511Z,64.80
2018-11-26T00:47:00.089Z,69.73
2018-11-26T00:49:28.608Z,66.17
2018-11-26T00:51:57.313Z,80.70
2018-11-26T00:54:25.916Z,73.50
2018-11-26T00:56:54.966Z,74.00
2018-11-26T00:59:23.552Z,87.50
2018-11-26T01:01:52.254Z,84.00
2018-11-26T01:04:20.922Z,82.90
2018-11-26T01:06:49.498Z,79.47
2018-11-26T01:09:18.185Z,85.70
2018-11-26T01:11:46.905Z,81.13
2018-11-26T01:14:15.729Z,89.97
2018-11-26T01:16:44.516Z,94.10
2018-11-26T01:19:13.224Z,88.70
2018-11-26T01:21:41.825Z,93.27
2018-11-26T01:24:10.499Z,108.30
2018-11-26T01:26:39.172Z,97.20
2018-11-26T01:29:07.880Z,91.93
2018-11-26T01:31:36.495Z,98.30
2018-11-26T01:34:05.131Z,91.83
2018-11-26T01:36:33.654Z,85.73
2018-11-26T01:39:02.278Z,93.40
2018-11-26T01:41:30.962Z,91.77
2018-11-26T01:43:59.693Z,80.77
2018-11-26T01:46:28.283Z,87.43
2018-11-26T01:48:56.860Z,96.60
2018-11-26T01:51:25.498Z,86.70
2018-11-26T01:53:54.157Z,90.80
2018-11-26T01:56:22.858Z,84.03
2018-11-26T01:58:51.559Z,91.83
2018-11-26T02:01:20.097Z,78.13
2018-11-26T02:03:48.678Z,98.00
2018-11-26T02:06:17.293Z,81.80
2018-11-26T02:08:45.928Z,82.50
2018-11-26T02:11:14.618Z,78.53
2018-11-26T02:13:43.351Z,81.00
2018-11-26T02:16:12.105Z,80.57
2018-11-26T02:18:40.732Z,81.90
2018-11-26T02:21:09.396Z,84.67
2018-11-26T02:23:38.148Z,81.80
2018-11-26T02:26:06.798Z,83.30
2018-11-26T02:28:35.499Z,86.37
2018-11-26T02:31:04.203Z,88.50
2018-11-26T02:33:32.831Z,84.37
2018-11-26T02:36:01.492Z,88.93
2018-11-26T02:38:30.122Z,90.53
2018-11-26T02:40:58.825Z,83.47
2018-11-26T02:43:27.405Z,87.67
2018-11-26T02:45:56.099Z,82.43
2018-11-26T02:48:24.701Z,89.37
2018-11-26T02:50:53.378Z,92.00
2018-11-26T02:53:22.041Z,86.00
2018-11-26T02:55:50.837Z,91.20
2018-11-26T02:58:19.521Z,86.80
2018-11-26T03:00:48.141Z,93.60
2018-11-26T03:03:17.169Z,87.60
2018-11-26T03:05:45.818Z,82.73
2018-11-26T03:08:14.362Z,95.30
2018-11-26T03:10:43.034Z,83.43
2018-11-26T03:13:11.667Z,83.90
2018-11-26T03:15:40.215Z,78.93
2018-11-26T03:18:08.836Z,85.27
2018-11-26T03:20:37.380Z,84.13
2018-11-26T03:23:06.953Z,79.87
2018-11-26T03:25:35.765Z,81.67
2018-11-26T03:28:04.380Z,79.87
2018-11-26T03:30:32.978Z,91.43
2018-11-26T03:33:01.659Z,82.50
2018-11-26T03:35:30.412Z,75.60
2018-11-26T03:37:59.109Z,81.30
2018-11-26T03:40:27.701Z,83.13
2018-11-26T03:42:56.255Z,79.17
2018-11-26T03:45:24.825Z,74.20
2018-11-26T03:47:53.326Z,68.93
2018-11-26T03:50:21.966Z,70.00
2018-11-26T03:52:50.691Z,69.20
2018-11-26T03:55:19.293Z,69.43
2018-11-26T03:57:47.979Z,68.63
2018-11-26T04:00:17.663Z,70.87
2018-11-26T04:02:46.232Z,66.83
2018-11-26T04:05:15.634Z,68.87
2018-11-26T04:07:44.394Z,64.33
2018-11-26T04:10:13.952Z,63.00
2018-11-26T04:12:42.547Z,64.93
2018-11-26T04:15:12.563Z,64.60
2018-11-26T04:17:41.233Z,62.33
2018-11-26T04:20:10.319Z,65.37
2018-11-26T04:22:38.806Z,62.10
2018-11-26T04:25:08.549Z,67.00
2018-11-26T04:27:37.042Z,60.70
2018-11-26T04:30:08.533Z,64.57
2018-11-26T04:32:37.508Z,60.80
2018-11-26T04:35:06.769Z,58.73
2018-11-26T04:37:35.464Z,61.80
2018-11-26T04:40:05.154Z,61.20
2018-11-26T04:42:33.811Z,59.83
2018-11-26T04:45:02.402Z,60.07
2018-11-26T04:47:30.982Z,57.20
2018-11-26T04:49:59.515Z,57.93
2018-11-26T04:52:28.056Z,55.57
2018-11-26T04:54:56.693Z,56.23
2018-11-26T04:57:25.220Z,50.53
2018-11-26T04:59:53.887Z,55.40
2018-11-26T05:02:22.515Z,50.57
2018-11-26T05:04:51.119Z,51.53
2018-11-26T05:07:19.680Z,52.77
2018-11-26T05:09:48.240Z,51.50
2018-11-26T05:12:16.923Z,56.37
2018-11-26T05:14:45.576Z,59.05
2018-11-26T05:17:14.257Z,60.85
2018-11-26T05:19:42.785Z,52.87
2018-11-26T05:22:11.389Z,54.17
2018-11-26T05:24:39.982Z,52.83
2018-11-26T05:27:08.580Z,54.97
2018-11-26T05:29:37.207Z,57.77
2018-11-26T05:32:07.082Z,57.23
2018-11-26T05:34:35.664Z,51.97
2018-11-26T05:37:05.331Z,54.23
2018-11-26T05:39:34.511Z,53.10
2018-11-26T05:42:03.038Z,55.87
2018-11-26T05:44:31.685Z,54.37
2018-11-26T05:47:00.550Z,52.57
2018-11-26T05:49:29.165Z,52.27
2018-11-26T05:51:57.806Z,53.93
2018-11-26T05:54:26.484Z,56.77
2018-11-26T05:56:55.089Z,54.87
2018-11-26T05:59:23.795Z,53.50
2018-11-26T06:01:52.525Z,49.60
2018-11-26T06:04:21.137Z,51.60
2018-11-26T06:06:49.752Z,52.40
2018-11-26T06:10:47.579Z,49.73
2018-11-26T06:13:17.256Z,51.53
2018-11-26T06:15:45.781Z,49.90
2018-11-26T06:18:14.407Z,45.43
2018-11-26T06:20:43.070Z,48.40
2018-11-26T06:23:11.679Z,49.03
2018-11-26T06:25:40.371Z,46.93
2018-11-26T06:28:09.121Z,45.20
2018-11-26T06:30:37.756Z,44.40
2018-11-26T06:33:07.419Z,45.03
2018-11-26T06:35:36.109Z,44.57
2018-11-26T06:38:04.672Z,42.47
2018-11-26T06:40:33.389Z,42.60
2018-11-26T06:43:02.071Z,42.43
2018-11-26T06:45:30.781Z,45.30
2018-11-26T06:47:59.351Z,47.77
2018-11-26T06:50:28.130Z,45.47
2018-11-26T06:52:56.720Z,48.13
2018-11-26T06:55:25.287Z,45.63
2018-11-26T06:57:53.843Z,43.33
2018-11-26T07:00:22.540Z,42.33
2018-11-26T07:02:51.294Z,43.07
2018-11-26T07:05:22.091Z,42.97
2018-11-26T07:07:50.856Z,45.30
2018-11-26T07:10:20.323Z,44.57
2018-11-26T07:12:48.978Z,43.47
2018-11-26T07:15:19.248Z,39.90
2018-11-26T07:17:47.943Z,41.03
2018-11-26T07:20:21.442Z,40.43
2018-11-26T07:22:50.173Z,39.80
2018-11-26T07:25:20.073Z,37.43
2018-11-26T07:27:51.375Z,39.90
2018-11-26T07:30:23.013Z,35.90
2018-11-26T07:32:51.639Z,34.80
2018-11-26T07:35:20.196Z,36.33
2018-11-26T07:37:48.750Z,35.23
2018-11-26T07:40:20.415Z,34.47
2018-11-26T07:42:50.882Z,38.23
2018-11-26T07:45:19.454Z,36.77
2018-11-26T07:47:47.948Z,36.03
2018-11-26T07:50:17.351Z,34.53
2018-11-26T07:52:45.884Z,33.53
2018-11-26T07:55:15.625Z,30.90
2018-11-26T07:57:44.333Z,34.00
2018-11-26T08:00:14.214Z,32.70
2018-11-26T08:02:43.162Z,35.23
2018-11-26T08:05:15.765Z,31.57
2018-11-26T08:07:44.295Z,34.13
2018-11-26T08:10:14.939Z,33.70
2018-11-26T08:12:43.942Z,34.93
2018-11-26T08:15:13.794Z,35.13
2018-11-26T08:17:42.586Z,37.57
2018-11-26T08:20:11.741Z,36.77
2018-11-26T08:22:40.439Z,36.77
2018-11-26T08:25:10.325Z,36.17
2018-11-26T08:27:39.493Z,35.57
2018-11-26T08:30:16.221Z,36.17
2018-11-26T08:32:45.876Z,42.33
2018-11-26T08:35:15.484Z,36.43
2018-11-26T08:37:49.244Z,39.90
2018-11-26T08:40:23.094Z,36.63
2018-11-26T08:42:51.739Z,33.03
2018-11-26T08:45:20.677Z,38.53
2018-11-26T08:47:54.602Z,30.80
2018-11-26T08:50:23.206Z,34.97
2018-11-26T08:52:51.913Z,32.70
2018-11-26T08:55:20.581Z,29.80
2018-11-26T08:57:49.142Z,32.67
2018-11-26T09:00:17.902Z,31.10
2018-11-26T09:02:53.696Z,30.00
2018-11-26T09:05:27.296Z,30.80
2018-11-26T09:07:55.900Z,32.17
2018-11-26T09:10:24.528Z,29.30
2018-11-26T09:12:53.141Z,30.33
2018-11-26T09:15:21.940Z,29.40
2018-11-26T09:17:51.508Z,29.03
2018-11-26T09:20:20.150Z,32.40
2018-11-26T09:22:48.776Z,33.37
2018-11-26T09:25:17.537Z,31.43
2018-11-26T09:27:46.176Z,32.90
2018-11-26T09:30:15.480Z,30.90
2018-11-26T09:32:45.012Z,31.53
2018-11-26T09:35:16.849Z,31.90
2018-11-26T09:37:45.604Z,32.77
2018-11-26T09:40:15.685Z,34.43
2018-11-26T09:42:44.418Z,32.43
2018-11-26T09:45:18.122Z,32.63
2018-11-26T09:47:46.921Z,33.43
2018-11-26T09:50:16.637Z,31.80
2018-11-26T09:52:45.361Z,29.17
2018-11-26T09:55:15.012Z,31.97
2018-11-26T09:57:43.679Z,33.17
2018-11-26T10:00:15.546Z,31.63
2018-11-26T10:02:45.626Z,33.10
2018-11-26T10:05:24.095Z,31.23
2018-11-26T10:07:58.333Z,31.37
2018-11-26T10:10:26.945Z,30.83
2018-11-26T10:12:55.502Z,32.03
2018-11-26T10:15:25.352Z,30.33
2018-11-26T10:17:53.975Z,27.57
2018-11-26T10:20:22.635Z,30.87
2018-11-26T10:22:52.458Z,30.30
2018-11-26T10:25:22.384Z,31.27
2018-11-26T10:27:51.026Z,34.50
2018-11-26T10:30:23.378Z,30.87
2018-11-26T10:32:51.820Z,31.10
2018-11-26T10:35:21.026Z,34.83
2018-11-26T10:37:49.882Z,36.80
2018-11-26T10:40:19.930Z,36.53
2018-11-26T10:42:48.641Z,37.90
2018-11-26T10:45:20.227Z,37.83
2018-11-26T10:47:48.826Z,38.10
2018-11-26T10:50:19.532Z,38.53
2018-11-26T10:52:51.341Z,35.37
2018-11-26T10:55:22.175Z,35.70
2018-11-26T10:57:50.778Z,33.80
2018-11-26T11:00:24.535Z,34.77
2018-11-26T11:02:53.247Z,36.10
2018-11-26T11:05:21.810Z,39.63
2018-11-26T11:07:50.518Z,36.63
2018-11-26T11:10:21.521Z,34.17
2018-11-26T11:12:50.277Z,35.80
2018-11-26T11:15:18.977Z,36.77
2018-11-26T11:17:47.617Z,36.77
2018-11-26T11:20:19.206Z,34.50
2018-11-26T11:22:47.962Z,34.27
2018-11-26T11:25:17.525Z,35.77
2018-11-26T11:27:46.261Z,36.47
2018-11-26T11:30:19.061Z,31.47
2018-11-26T11:32:47.873Z,34.20
2018-11-26T11:35:17.207Z,36.43
2018-11-26T11:37:47.263Z,35.23
2018-11-26T11:40:20.013Z,38.50
2018-11-26T11:42:49.046Z,35.07
2018-11-26T11:45:17.821Z,34.73
2018-11-26T11:47:46.616Z,31.70
2018-11-26T11:50:16.720Z,33.03
2018-11-26T11:52:45.729Z,32.97
2018-11-26T11:55:19.592Z,33.13
2018-11-26T11:57:48.200Z,33.97
2018-11-26T12:00:32.681Z,33.13
2018-11-26T12:03:02.662Z,33.87
2018-11-26T12:05:31.390Z,33.67
2018-11-26T12:08:00.006Z,34.33
2018-11-26T12:10:28.994Z,32.27
2018-11-26T12:12:57.447Z,38.40
2018-11-26T12:15:26.104Z,35.93
2018-11-26T12:17:54.703Z,33.80
2018-11-26T12:20:23.302Z,34.63
2018-11-26T12:22:51.890Z,33.87
2018-11-26T12:25:21.533Z,35.67
2018-11-26T12:27:50.307Z,34.10
2018-11-26T12:30:24.359Z,34.27
2018-11-26T12:32:52.942Z,33.80
2018-11-26T12:35:21.585Z,34.67
2018-11-26T12:37:50.154Z,34.53
2018-11-26T12:40:22.656Z,37.00
2018-11-26T12:42:53.508Z,38.83
2018-11-26T12:45:28.420Z,36.73
2018-11-26T12:47:57.093Z,38.00
2018-11-26T12:50:25.822Z,39.07
2018-11-26T12:52:54.412Z,38.63
2018-11-26T12:55:23.831Z,35.00
2018-11-26T12:57:53.150Z,39.23
2018-11-26T13:00:24.821Z,37.63
2018-11-26T13:03:16.382Z,39.67
2018-11-26T13:05:45.056Z,41.70
2018-11-26T13:08:13.650Z,39.63
2018-11-26T13:10:42.390Z,38.60
2018-11-26T13:13:11.531Z,41.13
2018-11-26T13:15:40.180Z,38.17
2018-11-26T13:18:08.875Z,40.07
2018-11-26T13:20:37.554Z,38.63
2018-11-26T13:23:07.774Z,34.17
2018-11-26T13:25:41.689Z,38.57
2018-11-26T13:28:07.361Z,38.87
2018-11-26T13:30:37.793Z,36.50
2018-11-26T13:33:08.803Z,34.73
2018-11-26T13:35:37.765Z,35.23
2018-11-26T13:38:07.282Z,34.43
2018-11-26T13:40:35.817Z,34.50
2018-11-26T13:43:06.890Z,36.60
2018-11-26T13:45:38.071Z,34.13
2018-11-26T13:48:08.868Z,37.63
2018-11-26T13:50:42.304Z,31.53
2018-11-26T13:53:10.955Z,37.73
2018-11-26T13:55:39.557Z,35.70
2018-11-26T13:58:08.152Z,34.03
2018-11-26T14:00:36.794Z,37.37
2018-11-26T14:03:06.885Z,36.23
2018-11-26T14:05:35.509Z,37.60
2018-11-26T14:08:04.795Z,34.40
2018-11-26T14:10:33.500Z,33.73
2018-11-26T14:13:08.802Z,35.03
2018-11-26T14:15:37.578Z,34.90
2018-11-26T14:18:06.451Z,32.53
2018-11-26T14:20:35.288Z,32.43
2018-11-26T14:23:04.005Z,30.87
2018-11-26T14:25:32.631Z,32.43
2018-11-26T14:28:01.361Z,35.43
2018-11-26T14:30:30.683Z,32.10
2018-11-26T14:32:59.495Z,33.60
2018-11-26T14:35:28.312Z,36.00
2018-11-26T14:38:00.511Z,31.37
2018-11-26T14:40:33.682Z,30.27
2018-11-26T14:43:02.866Z,34.20
2018-11-26T14:45:32.510Z,33.57
2018-11-26T14:48:01.101Z,33.60
2018-11-26T14:50:29.805Z,33.67
2018-11-26T14:52:58.543Z,32.23
2018-11-26T14:55:28.668Z,33.33
2018-11-26T14:58:08.503Z,29.67
2018-11-26T15:00:37.354Z,33.10
2018-11-26T15:03:07.150Z,30.90
2018-11-26T15:05:35.880Z,31.03
2018-11-26T15:08:04.720Z,30.93
2018-11-26T15:10:33.278Z,33.47
2018-11-26T15:13:01.940Z,34.50
2018-11-26T15:15:30.778Z,34.67
2018-11-26T15:17:59.495Z,32.80
2018-11-26T15:20:29.627Z,30.60
2018-11-26T15:22:59.241Z,30.13
2018-11-26T15:25:30.306Z,31.57
2018-11-26T15:28:02.657Z,30.87
2018-11-26T15:30:31.243Z,31.27
2018-11-26T15:32:59.990Z,30.77
2018-11-26T15:35:28.829Z,32.30
2018-11-26T15:37:57.466Z,31.33
2018-11-26T15:40:26.453Z,32.70
2018-11-26T15:42:56.205Z,27.93
2018-11-26T15:45:25.281Z,32.13
2018-11-26T15:47:54.809Z,31.17
2018-11-26T15:50:23.456Z,31.27
2018-11-26T15:52:52.288Z,30.10
2018-11-26T15:55:21.850Z,30.43
2018-11-26T15:57:50.636Z,29.43
2018-11-26T16:00:25.513Z,28.87
2018-11-26T16:02:54.317Z,28.17
2018-11-26T16:05:27.009Z,28.20
2018-11-26T16:07:57.203Z,27.83
2018-11-26T16:10:26.019Z,29.37
2018-11-26T16:12:57.643Z,27.87
2018-11-26T16:15:31.961Z,27.07
2018-11-26T16:18:01.535Z,27.00
2018-11-26T16:20:30.087Z,29.27
2018-11-26T16:23:00.245Z,26.37
2018-11-26T16:25:28.940Z,25.30
2018-11-26T16:27:57.595Z,26.20
2018-11-26T16:30:26.217Z,22.93
2018-11-26T16:32:56.310Z,25.20
2018-11-26T16:35:26.686Z,27.53
2018-11-26T16:37:55.413Z,25.17
2018-11-26T16:40:24.866Z,22.70
2018-11-26T16:42:53.582Z,22.67
2018-11-26T16:45:23.793Z,24.53
2018-11-26T16:47:54.477Z,25.27
2018-11-26T16:50:25.470Z,24.17
2018-11-26T16:52:54.095Z,22.37
2018-11-26T16:55:22.800Z,26.77
2018-11-26T16:57:51.817Z,22.70
2018-11-26T17:00:22.550Z,24.40
2018-11-26T17:02:52.523Z,22.83
2018-11-26T17:05:23.520Z,27.07
2018-11-26T17:07:52.061Z,27.90
2018-11-26T17:10:20.665Z,24.90
2018-11-26T17:12:49.310Z,28.83
2018-11-26T17:15:18.674Z,25.70
2018-11-26T17:17:47.290Z,27.10
2018-11-26T17:20:17.054Z,31.30
2018-11-26T17:22:45.988Z,26.10
2018-11-26T17:25:15.881Z,26.10
2018-11-26T17:27:45.396Z,28.37
2018-11-26T17:30:29.838Z,26.97
2018-11-26T17:33:01.027Z,25.07
2018-11-26T17:35:30.482Z,29.40
2018-11-26T17:37:59.156Z,27.83
2018-11-26T17:40:27.938Z,26.10
2018-11-26T17:42:56.760Z,27.60
2018-11-26T17:45:26.134Z,29.10
2018-11-26T17:48:00.119Z,28.67
2018-11-26T17:50:37.616Z,24.53
2018-11-26T17:53:08.626Z,25.90
2018-11-26T17:55:45.150Z,27.40
2018-11-26T17:58:14.110Z,25.17
2018-11-26T18:00:42.805Z,26.17
2018-11-26T18:03:11.455Z,26.77
2018-11-26T18:05:40.359Z,26.47
2018-11-26T18:08:15.393Z,27.20
2018-11-26T18:10:44.036Z,25.87
2018-11-26T18:13:12.738Z,26.07
2018-11-26T18:15:41.526Z,26.27
2018-11-26T18:18:11.855Z,28.13
2018-11-26T18:20:40.739Z,26.13
2018-11-26T18:23:10.145Z,26.90
2018-11-26T18:25:38.999Z,26.90
2018-11-26T18:28:09.347Z,25.37
2018-11-26T18:30:42.237Z,24.77
2018-11-26T18:33:10.970Z,25.53
2018-11-26T23:57:43.748Z,13.90
